sensor_id;sensor_type;location;lat;lon;timestamp;P1;durP1;ratioP1;P2;durP2;ratioP2
19163;SDS011;9714;51.208;4.242;2022-12-11T00:00:11;39.60;;;19.50;;
19163;SDS011;9714;51.208;4.242;2022-12-11T00:02:40;37.37;;;18.17;;
19163;SDS011;9714;51.208;4.242;2022-12-11T00:05:07;36.80;;;18.00;;
19163;SDS011;9714;51.208;4.242;2022-12-11T00:07:35;33.60;;;16.70;;
19163;SDS011;9714;51.208;4.242;2022-12-11T00:10:06;37.90;;;17.73;;
19163;SDS011;9714;51.208;4.242;2022-12-11T00:12:36;34.80;;;16.40;;
19163;SDS011;9714;51.208;4.242;2022-12-11T00:15:11;30.67;;;15.53;;
19163;SDS011;9714;51.208;4.242;2022-12-11T00:17:39;34.10;;;17.57;;
19163;SDS011;9714;51.208;4.242;2022-12-11T00:20:07;33.57;;;16.97;;
19163;SDS011;9714;51.208;4.242;2022-12-11T00:22:34;31.33;;;14.87;;
19163;SDS011;9714;51.208;4.242;2022-12-11T00:25:02;32.93;;;16.10;;
19163;SDS011;9714;51.208;4.242;2022-12-11T00:27:32;36.93;;;17.77;;
19163;SDS011;9714;51.208;4.242;2022-12-11T00:29:59;34.83;;;16.73;;
19163;SDS011;9714;51.208;4.242;2022-12-11T00:32:26;32.13;;;16.47;;
19163;SDS011;9714;51.208;4.242;2022-12-11T00:34:53;34.37;;;18.20;;
19163;SDS011;9714;51.208;4.242;2022-12-11T00:37:30;34.30;;;16.40;;
19163;SDS011;9714;51.208;4.242;2022-12-11T00:39:57;32.23;;;16.70;;
19163;SDS011;9714;51.208;4.242;2022-12-11T00:42:24;35.10;;;16.67;;
19163;SDS011;9714;51.208;4.242;2022-12-11T00:44:52;31.13;;;17.37;;
19163;SDS011;9714;51.208;4.242;2022-12-11T00:47:20;31.97;;;15.57;;
19163;SDS011;9714;51.208;4.242;2022-12-11T00:49:47;35.43;;;16.80;;
19163;SDS011;9714;51.208;4.242;2022-12-11T00:52:14;32.83;;;16.53;;
19163;SDS011;9714;51.208;4.242;2022-12-11T00:54:54;30.87;;;15.20;;
19163;SDS011;9714;51.208;4.242;2022-12-11T00:57:22;33.33;;;17.43;;
19163;SDS011;9714;51.208;4.242;2022-12-11T00:59:48;35.97;;;17.97;;
19163;SDS011;9714;51.208;4.242;2022-12-11T01:02:17;34.57;;;17.10;;
19163;SDS011;9714;51.208;4.242;2022-12-11T01:04:45;30.40;;;14.97;;
19163;SDS011;9714;51.208;4.242;2022-12-11T01:07:12;31.43;;;16.30;;
19163;SDS011;9714;51.208;4.242;2022-12-11T01:09:39;34.40;;;16.57;;
19163;SDS011;9714;51.208;4.242;2022-12-11T01:12:23;34.90;;;16.00;;
19163;SDS011;9714;51.208;4.242;2022-12-11T01:14:59;33.77;;;16.23;;
19163;SDS011;9714;51.208;4.242;2022-12-11T01:17:29;33.53;;;18.63;;
19163;SDS011;9714;51.208;4.242;2022-12-11T01:20:25;35.10;;;16.60;;
19163;SDS011;9714;51.208;4.242;2022-12-11T01:22:57;34.20;;;17.17;;
19163;SDS011;9714;51.208;4.242;2022-12-11T01:25:25;32.23;;;16.63;;
19163;SDS011;9714;51.208;4.242;2022-12-11T01:27:53;36.77;;;18.20;;
19163;SDS011;9714;51.208;4.242;2022-12-11T01:30:24;34.57;;;16.67;;
19163;SDS011;9714;51.208;4.242;2022-12-11T01:32:56;33.37;;;16.70;;
19163;SDS011;9714;51.208;4.242;2022-12-11T01:35:23;31.57;;;16.37;;
19163;SDS011;9714;51.208;4.242;2022-12-11T01:37:54;29.37;;;15.40;;
19163;SDS011;9714;51.208;4.242;2022-12-11T01:40:30;31.50;;;16.23;;
19163;SDS011;9714;51.208;4.242;2022-12-11T01:42:56;33.83;;;16.93;;
19163;SDS011;9714;51.208;4.242;2022-12-11T01:45:31;31.20;;;15.70;;
19163;SDS011;9714;51.208;4.242;2022-12-11T01:48:07;33.53;;;15.77;;
19163;SDS011;9714;51.208;4.242;2022-12-11T01:50:46;34.93;;;17.00;;
19163;SDS011;9714;51.208;4.242;2022-12-11T01:53:17;30.53;;;13.67;;
19163;SDS011;9714;51.208;4.242;2022-12-11T01:55:50;37.13;;;16.23;;
19163;SDS011;9714;51.208;4.242;2022-12-11T01:58:24;37.30;;;17.90;;
19163;SDS011;9714;51.208;4.242;2022-12-11T02:01:05;29.90;;;14.23;;
19163;SDS011;9714;51.208;4.242;2022-12-11T02:03:36;32.17;;;15.77;;
19163;SDS011;9714;51.208;4.242;2022-12-11T02:06:03;33.73;;;16.13;;
19163;SDS011;9714;51.208;4.242;2022-12-11T02:08:30;34.97;;;16.07;;
19163;SDS011;9714;51.208;4.242;2022-12-11T02:11:01;35.63;;;16.70;;
19163;SDS011;9714;51.208;4.242;2022-12-11T02:13:41;34.43;;;16.90;;
19163;SDS011;9714;51.208;4.242;2022-12-11T02:16:17;29.80;;;16.73;;
19163;SDS011;9714;51.208;4.242;2022-12-11T02:18:53;35.80;;;15.00;;
19163;SDS011;9714;51.208;4.242;2022-12-11T02:21:27;32.87;;;16.23;;
19163;SDS011;9714;51.208;4.242;2022-12-11T02:24:06;34.13;;;17.03;;
19163;SDS011;9714;51.208;4.242;2022-12-11T02:29:43;36.80;;;17.33;;
19163;SDS011;9714;51.208;4.242;2022-12-11T02:32:16;34.17;;;15.63;;
19163;SDS011;9714;51.208;4.242;2022-12-11T02:34:47;32.97;;;16.27;;
19163;SDS011;9714;51.208;4.242;2022-12-11T02:37:19;36.80;;;18.60;;
19163;SDS011;9714;51.208;4.242;2022-12-11T02:39:49;40.03;;;18.57;;
19163;SDS011;9714;51.208;4.242;2022-12-11T02:42:19;35.93;;;17.20;;
19163;SDS011;9714;51.208;4.242;2022-12-11T02:44:49;36.57;;;18.13;;
19163;SDS011;9714;51.208;4.242;2022-12-11T02:47:18;39.30;;;18.83;;
19163;SDS011;9714;51.208;4.242;2022-12-11T02:49:47;40.33;;;18.43;;
19163;SDS011;9714;51.208;4.242;2022-12-11T02:52:17;36.73;;;18.60;;
19163;SDS011;9714;51.208;4.242;2022-12-11T02:54:48;38.63;;;18.70;;
19163;SDS011;9714;51.208;4.242;2022-12-11T02:57:18;36.87;;;18.60;;
19163;SDS011;9714;51.208;4.242;2022-12-11T02:59:50;40.23;;;19.37;;
19163;SDS011;9714;51.208;4.242;2022-12-11T03:02:17;37.37;;;19.83;;
19163;SDS011;9714;51.208;4.242;2022-12-11T03:04:44;37.83;;;18.13;;
19163;SDS011;9714;51.208;4.242;2022-12-11T03:07:14;41.77;;;20.07;;
19163;SDS011;9714;51.208;4.242;2022-12-11T03:09:45;41.90;;;18.50;;
19163;SDS011;9714;51.208;4.242;2022-12-11T03:12:14;39.10;;;18.70;;
19163;SDS011;9714;51.208;4.242;2022-12-11T03:14:44;43.87;;;20.80;;
19163;SDS011;9714;51.208;4.242;2022-12-11T03:17:15;38.50;;;18.63;;
19163;SDS011;9714;51.208;4.242;2022-12-11T03:19:46;43.87;;;19.23;;
19163;SDS011;9714;51.208;4.242;2022-12-11T03:22:20;44.87;;;20.80;;
19163;SDS011;9714;51.208;4.242;2022-12-11T03:24:51;39.60;;;19.50;;
19163;SDS011;9714;51.208;4.242;2022-12-11T03:27:26;37.50;;;18.30;;
19163;SDS011;9714;51.208;4.242;2022-12-11T03:29:57;35.07;;;18.23;;
19163;SDS011;9714;51.208;4.242;2022-12-11T03:32:30;39.50;;;18.50;;
19163;SDS011;9714;51.208;4.242;2022-12-11T03:35:04;39.07;;;18.37;;
19163;SDS011;9714;51.208;4.242;2022-12-11T03:37:37;39.43;;;17.90;;
19163;SDS011;9714;51.208;4.242;2022-12-11T03:40:09;43.53;;;20.17;;
19163;SDS011;9714;51.208;4.242;2022-12-11T03:42:38;36.77;;;18.13;;
19163;SDS011;9714;51.208;4.242;2022-12-11T03:45:07;43.47;;;19.73;;
19163;SDS011;9714;51.208;4.242;2022-12-11T03:47:37;40.30;;;18.30;;
19163;SDS011;9714;51.208;4.242;2022-12-11T03:50:07;41.13;;;18.80;;
19163;SDS011;9714;51.208;4.242;2022-12-11T03:52:38;39.00;;;19.00;;
19163;SDS011;9714;51.208;4.242;2022-12-11T03:55:06;39.20;;;18.87;;
19163;SDS011;9714;51.208;4.242;2022-12-11T03:57:36;41.80;;;18.53;;
19163;SDS011;9714;51.208;4.242;2022-12-11T04:00:04;35.97;;;17.43;;
19163;SDS011;9714;51.208;4.242;2022-12-11T04:02:32;40.37;;;18.53;;
19163;SDS011;9714;51.208;4.242;2022-12-11T04:05:01;39.33;;;19.47;;
19163;SDS011;9714;51.208;4.242;2022-12-11T04:07:28;40.33;;;17.90;;
19163;SDS011;9714;51.208;4.242;2022-12-11T04:09:56;41.50;;;18.00;;
19163;SDS011;9714;51.208;4.242;2022-12-11T04:12:23;37.90;;;18.83;;
19163;SDS011;9714;51.208;4.242;2022-12-11T04:14:50;37.10;;;17.13;;
19163;SDS011;9714;51.208;4.242;2022-12-11T04:17:28;33.43;;;17.23;;
19163;SDS011;9714;51.208;4.242;2022-12-11T04:20:15;37.83;;;17.80;;
19163;SDS011;9714;51.208;4.242;2022-12-11T04:23:02;40.67;;;18.10;;
19163;SDS011;9714;51.208;4.242;2022-12-11T04:25:46;40.07;;;17.87;;
19163;SDS011;9714;51.208;4.242;2022-12-11T04:28:13;44.90;;;19.23;;
19163;SDS011;9714;51.208;4.242;2022-12-11T04:30:40;38.93;;;17.60;;
19163;SDS011;9714;51.208;4.242;2022-12-11T04:33:13;41.33;;;19.33;;
19163;SDS011;9714;51.208;4.242;2022-12-11T04:35:41;37.93;;;18.73;;
19163;SDS011;9714;51.208;4.242;2022-12-11T04:38:08;39.10;;;19.70;;
19163;SDS011;9714;51.208;4.242;2022-12-11T04:40:35;38.90;;;17.70;;
19163;SDS011;9714;51.208;4.242;2022-12-11T04:43:02;44.50;;;19.17;;
19163;SDS011;9714;51.208;4.242;2022-12-11T04:45:29;37.20;;;18.40;;
19163;SDS011;9714;51.208;4.242;2022-12-11T04:47:56;37.50;;;17.37;;
19163;SDS011;9714;51.208;4.242;2022-12-11T04:50:23;38.50;;;17.27;;
19163;SDS011;9714;51.208;4.242;2022-12-11T04:52:54;41.37;;;20.40;;
19163;SDS011;9714;51.208;4.242;2022-12-11T04:55:21;38.33;;;18.27;;
19163;SDS011;9714;51.208;4.242;2022-12-11T04:57:49;35.93;;;17.73;;
19163;SDS011;9714;51.208;4.242;2022-12-11T05:00:16;43.93;;;19.80;;
19163;SDS011;9714;51.208;4.242;2022-12-11T05:02:43;43.90;;;20.47;;
19163;SDS011;9714;51.208;4.242;2022-12-11T05:05:11;38.90;;;17.97;;
19163;SDS011;9714;51.208;4.242;2022-12-11T05:07:40;41.67;;;17.83;;
19163;SDS011;9714;51.208;4.242;2022-12-11T05:10:08;41.17;;;19.00;;
19163;SDS011;9714;51.208;4.242;2022-12-11T05:12:35;40.00;;;18.67;;
19163;SDS011;9714;51.208;4.242;2022-12-11T05:15:02;39.27;;;19.37;;
19163;SDS011;9714;51.208;4.242;2022-12-11T05:17:30;41.60;;;20.03;;
19163;SDS011;9714;51.208;4.242;2022-12-11T05:19:57;42.33;;;19.90;;
19163;SDS011;9714;51.208;4.242;2022-12-11T05:22:25;44.00;;;19.70;;
19163;SDS011;9714;51.208;4.242;2022-12-11T05:24:52;41.00;;;20.60;;
19163;SDS011;9714;51.208;4.242;2022-12-11T05:27:20;45.93;;;19.17;;
19163;SDS011;9714;51.208;4.242;2022-12-11T05:29:47;40.20;;;18.90;;
19163;SDS011;9714;51.208;4.242;2022-12-11T05:32:15;41.43;;;21.20;;
19163;SDS011;9714;51.208;4.242;2022-12-11T05:34:42;44.20;;;19.70;;
19163;SDS011;9714;51.208;4.242;2022-12-11T05:37:09;41.63;;;20.67;;
19163;SDS011;9714;51.208;4.242;2022-12-11T05:39:36;45.27;;;20.47;;
19163;SDS011;9714;51.208;4.242;2022-12-11T05:42:03;45.63;;;21.27;;
19163;SDS011;9714;51.208;4.242;2022-12-11T05:44:32;43.93;;;20.57;;
19163;SDS011;9714;51.208;4.242;2022-12-11T05:46:59;44.50;;;21.90;;
19163;SDS011;9714;51.208;4.242;2022-12-11T05:49:25;37.30;;;18.87;;
19163;SDS011;9714;51.208;4.242;2022-12-11T05:51:52;46.67;;;21.43;;
19163;SDS011;9714;51.208;4.242;2022-12-11T05:54:19;43.33;;;21.27;;
19163;SDS011;9714;51.208;4.242;2022-12-11T05:56:47;42.80;;;19.37;;
19163;SDS011;9714;51.208;4.242;2022-12-11T05:59:15;39.90;;;19.20;;
19163;SDS011;9714;51.208;4.242;2022-12-11T06:01:45;41.20;;;21.53;;
19163;SDS011;9714;51.208;4.242;2022-12-11T06:04:12;42.37;;;19.90;;
19163;SDS011;9714;51.208;4.242;2022-12-11T06:06:40;43.83;;;20.93;;
19163;SDS011;9714;51.208;4.242;2022-12-11T06:09:10;44.10;;;19.90;;
19163;SDS011;9714;51.208;4.242;2022-12-11T06:11:38;39.13;;;19.77;;
19163;SDS011;9714;51.208;4.242;2022-12-11T06:14:05;43.90;;;21.17;;
19163;SDS011;9714;51.208;4.242;2022-12-11T06:16:32;43.20;;;20.13;;
19163;SDS011;9714;51.208;4.242;2022-12-11T06:19:00;45.63;;;21.13;;
19163;SDS011;9714;51.208;4.242;2022-12-11T06:21:28;42.77;;;20.40;;
19163;SDS011;9714;51.208;4.242;2022-12-11T06:23:57;40.57;;;19.63;;
19163;SDS011;9714;51.208;4.242;2022-12-11T06:26:26;40.20;;;19.50;;
19163;SDS011;9714;51.208;4.242;2022-12-11T06:28:53;42.40;;;20.43;;
19163;SDS011;9714;51.208;4.242;2022-12-11T06:31:20;41.17;;;20.67;;
19163;SDS011;9714;51.208;4.242;2022-12-11T06:33:47;42.07;;;19.87;;
19163;SDS011;9714;51.208;4.242;2022-12-11T06:36:18;45.17;;;23.20;;
19163;SDS011;9714;51.208;4.242;2022-12-11T06:38:46;43.43;;;20.70;;
19163;SDS011;9714;51.208;4.242;2022-12-11T06:41:13;42.33;;;20.47;;
19163;SDS011;9714;51.208;4.242;2022-12-11T06:43:41;45.17;;;21.87;;
19163;SDS011;9714;51.208;4.242;2022-12-11T06:46:08;44.63;;;21.67;;
19163;SDS011;9714;51.208;4.242;2022-12-11T06:48:37;43.90;;;21.80;;
19163;SDS011;9714;51.208;4.242;2022-12-11T06:51:06;42.80;;;21.33;;
19163;SDS011;9714;51.208;4.242;2022-12-11T06:53:35;44.23;;;21.20;;
19163;SDS011;9714;51.208;4.242;2022-12-11T06:56:03;49.03;;;21.87;;
19163;SDS011;9714;51.208;4.242;2022-12-11T06:58:30;41.17;;;20.67;;
19163;SDS011;9714;51.208;4.242;2022-12-11T07:01:00;44.33;;;21.83;;
19163;SDS011;9714;51.208;4.242;2022-12-11T07:03:27;48.87;;;23.23;;
19163;SDS011;9714;51.208;4.242;2022-12-11T07:05:58;46.80;;;22.13;;
19163;SDS011;9714;51.208;4.242;2022-12-11T07:08:26;46.43;;;22.67;;
19163;SDS011;9714;51.208;4.242;2022-12-11T07:11:00;52.50;;;23.93;;
19163;SDS011;9714;51.208;4.242;2022-12-11T07:13:28;55.23;;;23.73;;
19163;SDS011;9714;51.208;4.242;2022-12-11T07:15:56;47.73;;;22.07;;
19163;SDS011;9714;51.208;4.242;2022-12-11T07:18:25;54.53;;;27.47;;
19163;SDS011;9714;51.208;4.242;2022-12-11T07:20:53;48.57;;;24.83;;
19163;SDS011;9714;51.208;4.242;2022-12-11T07:23:21;54.23;;;25.37;;
19163;SDS011;9714;51.208;4.242;2022-12-11T07:25:48;60.07;;;26.93;;
19163;SDS011;9714;51.208;4.242;2022-12-11T07:28:16;61.80;;;28.50;;
19163;SDS011;9714;51.208;4.242;2022-12-11T07:30:43;58.57;;;26.93;;
19163;SDS011;9714;51.208;4.242;2022-12-11T07:33:10;59.70;;;27.17;;
19163;SDS011;9714;51.208;4.242;2022-12-11T07:35:37;53.87;;;28.60;;
19163;SDS011;9714;51.208;4.242;2022-12-11T07:38:04;53.63;;;25.87;;
19163;SDS011;9714;51.208;4.242;2022-12-11T07:40:32;54.17;;;25.37;;
19163;SDS011;9714;51.208;4.242;2022-12-11T07:42:59;53.40;;;25.33;;
19163;SDS011;9714;51.208;4.242;2022-12-11T07:45:27;57.47;;;27.00;;
19163;SDS011;9714;51.208;4.242;2022-12-11T07:47:54;55.20;;;25.73;;
19163;SDS011;9714;51.208;4.242;2022-12-11T07:50:21;55.07;;;25.83;;
19163;SDS011;9714;51.208;4.242;2022-12-11T07:52:48;52.43;;;26.43;;
19163;SDS011;9714;51.208;4.242;2022-12-11T07:55:16;55.23;;;26.50;;
19163;SDS011;9714;51.208;4.242;2022-12-11T07:57:43;54.50;;;26.60;;
19163;SDS011;9714;51.208;4.242;2022-12-11T08:00:10;51.70;;;26.87;;
19163;SDS011;9714;51.208;4.242;2022-12-11T08:02:39;55.87;;;24.87;;
19163;SDS011;9714;51.208;4.242;2022-12-11T08:05:06;55.10;;;26.73;;
19163;SDS011;9714;51.208;4.242;2022-12-11T08:07:34;52.40;;;25.30;;
19163;SDS011;9714;51.208;4.242;2022-12-11T08:10:01;50.00;;;25.00;;
19163;SDS011;9714;51.208;4.242;2022-12-11T08:12:28;52.80;;;24.67;;
19163;SDS011;9714;51.208;4.242;2022-12-11T08:14:56;56.10;;;26.90;;
19163;SDS011;9714;51.208;4.242;2022-12-11T08:17:23;52.20;;;25.40;;
19163;SDS011;9714;51.208;4.242;2022-12-11T08:19:51;58.87;;;25.97;;
19163;SDS011;9714;51.208;4.242;2022-12-11T08:22:18;56.23;;;26.33;;
19163;SDS011;9714;51.208;4.242;2022-12-11T08:24:45;55.97;;;24.50;;
19163;SDS011;9714;51.208;4.242;2022-12-11T08:27:12;51.50;;;23.93;;
19163;SDS011;9714;51.208;4.242;2022-12-11T08:29:40;52.80;;;24.77;;
19163;SDS011;9714;51.208;4.242;2022-12-11T08:32:07;52.60;;;24.93;;
19163;SDS011;9714;51.208;4.242;2022-12-11T08:34:35;50.03;;;24.90;;
19163;SDS011;9714;51.208;4.242;2022-12-11T08:37:04;52.63;;;24.83;;
19163;SDS011;9714;51.208;4.242;2022-12-11T08:39:30;50.77;;;24.47;;
19163;SDS011;9714;51.208;4.242;2022-12-11T08:41:57;52.97;;;25.00;;
19163;SDS011;9714;51.208;4.242;2022-12-11T08:44:24;52.07;;;24.83;;
19163;SDS011;9714;51.208;4.242;2022-12-11T08:46:52;53.70;;;25.10;;
19163;SDS011;9714;51.208;4.242;2022-12-11T08:49:19;53.67;;;24.47;;
19163;SDS011;9714;51.208;4.242;2022-12-11T08:51:46;47.70;;;21.87;;
19163;SDS011;9714;51.208;4.242;2022-12-11T08:54:14;53.87;;;23.97;;
19163;SDS011;9714;51.208;4.242;2022-12-11T08:56:41;50.37;;;24.67;;
19163;SDS011;9714;51.208;4.242;2022-12-11T08:59:08;53.13;;;28.23;;
19163;SDS011;9714;51.208;4.242;2022-12-11T09:01:35;52.57;;;27.67;;
19163;SDS011;9714;51.208;4.242;2022-12-11T09:04:02;59.97;;;26.73;;
19163;SDS011;9714;51.208;4.242;2022-12-11T09:06:29;49.43;;;24.80;;
19163;SDS011;9714;51.208;4.242;2022-12-11T09:08:59;55.67;;;25.03;;
19163;SDS011;9714;51.208;4.242;2022-12-11T09:11:30;49.43;;;23.60;;
19163;SDS011;9714;51.208;4.242;2022-12-11T09:13:58;52.60;;;24.27;;
19163;SDS011;9714;51.208;4.242;2022-12-11T09:16:26;51.33;;;23.53;;
19163;SDS011;9714;51.208;4.242;2022-12-11T09:18:54;51.63;;;23.73;;
19163;SDS011;9714;51.208;4.242;2022-12-11T09:21:24;47.73;;;21.87;;
19163;SDS011;9714;51.208;4.242;2022-12-11T09:23:53;46.70;;;22.60;;
19163;SDS011;9714;51.208;4.242;2022-12-11T09:26:22;47.43;;;23.70;;
19163;SDS011;9714;51.208;4.242;2022-12-11T09:28:51;47.43;;;22.93;;
19163;SDS011;9714;51.208;4.242;2022-12-11T09:31:19;45.53;;;21.47;;
19163;SDS011;9714;51.208;4.242;2022-12-11T09:33:48;45.67;;;21.63;;
19163;SDS011;9714;51.208;4.242;2022-12-11T09:36:16;43.03;;;20.10;;
19163;SDS011;9714;51.208;4.242;2022-12-11T09:38:46;53.43;;;24.50;;
19163;SDS011;9714;51.208;4.242;2022-12-11T09:41:25;43.43;;;21.37;;
19163;SDS011;9714;51.208;4.242;2022-12-11T09:44:03;43.97;;;20.20;;
19163;SDS011;9714;51.208;4.242;2022-12-11T09:46:41;41.93;;;19.77;;
19163;SDS011;9714;51.208;4.242;2022-12-11T09:49:11;44.20;;;20.50;;
19163;SDS011;9714;51.208;4.242;2022-12-11T09:51:50;42.63;;;19.57;;
19163;SDS011;9714;51.208;4.242;2022-12-11T09:54:23;47.27;;;22.17;;
19163;SDS011;9714;51.208;4.242;2022-12-11T09:56:52;40.87;;;19.77;;
19163;SDS011;9714;51.208;4.242;2022-12-11T09:59:26;47.97;;;22.63;;
19163;SDS011;9714;51.208;4.242;2022-12-11T10:02:15;45.90;;;19.90;;
19163;SDS011;9714;51.208;4.242;2022-12-11T10:04:55;46.03;;;20.80;;
19163;SDS011;9714;51.208;4.242;2022-12-11T10:07:33;49.10;;;21.10;;
19163;SDS011;9714;51.208;4.242;2022-12-11T10:10:08;39.80;;;19.93;;
19163;SDS011;9714;51.208;4.242;2022-12-11T10:12:49;37.70;;;19.03;;
19163;SDS011;9714;51.208;4.242;2022-12-11T10:15:30;40.50;;;20.27;;
19163;SDS011;9714;51.208;4.242;2022-12-11T10:18:00;42.60;;;20.93;;
19163;SDS011;9714;51.208;4.242;2022-12-11T10:20:31;46.93;;;20.57;;
19163;SDS011;9714;51.208;4.242;2022-12-11T10:23:05;46.47;;;20.93;;
19163;SDS011;9714;51.208;4.242;2022-12-11T10:25:35;45.57;;;19.20;;
19163;SDS011;9714;51.208;4.242;2022-12-11T10:28:10;39.40;;;19.17;;
19163;SDS011;9714;51.208;4.242;2022-12-11T10:30:42;41.50;;;21.13;;
19163;SDS011;9714;51.208;4.242;2022-12-11T10:33:15;42.57;;;19.27;;
19163;SDS011;9714;51.208;4.242;2022-12-11T10:35:47;42.13;;;22.07;;
19163;SDS011;9714;51.208;4.242;2022-12-11T10:38:19;49.30;;;22.27;;
19163;SDS011;9714;51.208;4.242;2022-12-11T10:40:50;49.07;;;20.30;;
19163;SDS011;9714;51.208;4.242;2022-12-11T10:43:19;44.43;;;21.43;;
19163;SDS011;9714;51.208;4.242;2022-12-11T10:45:58;41.77;;;19.97;;
19163;SDS011;9714;51.208;4.242;2022-12-11T10:48:25;47.20;;;23.67;;
19163;SDS011;9714;51.208;4.242;2022-12-11T10:50:57;50.27;;;24.00;;
19163;SDS011;9714;51.208;4.242;2022-12-11T10:53:27;50.83;;;24.40;;
19163;SDS011;9714;51.208;4.242;2022-12-11T10:55:58;50.13;;;24.03;;
19163;SDS011;9714;51.208;4.242;2022-12-11T10:58:27;44.47;;;19.53;;
19163;SDS011;9714;51.208;4.242;2022-12-11T11:01:06;49.87;;;21.30;;
19163;SDS011;9714;51.208;4.242;2022-12-11T11:03:39;47.47;;;23.20;;
19163;SDS011;9714;51.208;4.242;2022-12-11T11:06:19;50.60;;;24.00;;
19163;SDS011;9714;51.208;4.242;2022-12-11T11:08:53;46.00;;;19.60;;
19163;SDS011;9714;51.208;4.242;2022-12-11T11:11:24;52.17;;;21.23;;
19163;SDS011;9714;51.208;4.242;2022-12-11T11:14:04;46.53;;;19.40;;
19163;SDS011;9714;51.208;4.242;2022-12-11T11:16:40;47.67;;;20.77;;
19163;SDS011;9714;51.208;4.242;2022-12-11T11:21:46;51.53;;;20.43;;
19163;SDS011;9714;51.208;4.242;2022-12-11T11:24:26;42.27;;;19.07;;
19163;SDS011;9714;51.208;4.242;2022-12-11T11:27:01;48.80;;;20.03;;
19163;SDS011;9714;51.208;4.242;2022-12-11T11:29:37;46.63;;;19.57;;
19163;SDS011;9714;51.208;4.242;2022-12-11T11:32:18;44.63;;;18.90;;
19163;SDS011;9714;51.208;4.242;2022-12-11T11:35:03;50.30;;;19.60;;
19163;SDS011;9714;51.208;4.242;2022-12-11T11:37:33;42.80;;;19.50;;
19163;SDS011;9714;51.208;4.242;2022-12-11T11:40:02;40.93;;;19.13;;
19163;SDS011;9714;51.208;4.242;2022-12-11T11:42:41;42.03;;;19.37;;
19163;SDS011;9714;51.208;4.242;2022-12-11T11:47:54;48.53;;;19.20;;
19163;SDS011;9714;51.208;4.242;2022-12-11T11:50:33;53.60;;;23.23;;
19163;SDS011;9714;51.208;4.242;2022-12-11T11:53:02;40.90;;;19.37;;
19163;SDS011;9714;51.208;4.242;2022-12-11T11:55:36;47.83;;;18.23;;
19163;SDS011;9714;51.208;4.242;2022-12-11T11:58:11;46.33;;;19.13;;
19163;SDS011;9714;51.208;4.242;2022-12-11T12:00:41;41.50;;;18.20;;
19163;SDS011;9714;51.208;4.242;2022-12-11T12:03:11;46.13;;;17.77;;
19163;SDS011;9714;51.208;4.242;2022-12-11T12:05:42;45.90;;;17.87;;
19163;SDS011;9714;51.208;4.242;2022-12-11T12:08:18;40.90;;;18.30;;
19163;SDS011;9714;51.208;4.242;2022-12-11T12:11:00;43.33;;;17.70;;
19163;SDS011;9714;51.208;4.242;2022-12-11T12:13:35;43.30;;;17.93;;
19163;SDS011;9714;51.208;4.242;2022-12-11T12:16:13;47.00;;;18.53;;
19163;SDS011;9714;51.208;4.242;2022-12-11T12:18:48;49.03;;;19.03;;
19163;SDS011;9714;51.208;4.242;2022-12-11T12:21:32;42.73;;;19.47;;
19163;SDS011;9714;51.208;4.242;2022-12-11T12:24:05;38.33;;;17.60;;
19163;SDS011;9714;51.208;4.242;2022-12-11T12:26:43;40.40;;;17.17;;
19163;SDS011;9714;51.208;4.242;2022-12-11T12:29:17;44.53;;;18.37;;
19163;SDS011;9714;51.208;4.242;2022-12-11T12:31:55;39.90;;;17.77;;
19163;SDS011;9714;51.208;4.242;2022-12-11T12:40:25;39.87;;;16.27;;
19163;SDS011;9714;51.208;4.242;2022-12-11T12:42:59;37.07;;;18.03;;
19163;SDS011;9714;51.208;4.242;2022-12-11T12:48:27;35.17;;;15.53;;
19163;SDS011;9714;51.208;4.242;2022-12-11T12:50:57;35.80;;;15.13;;
19163;SDS011;9714;51.208;4.242;2022-12-11T12:53:26;32.93;;;15.80;;
19163;SDS011;9714;51.208;4.242;2022-12-11T12:55:57;33.47;;;15.67;;
19163;SDS011;9714;51.208;4.242;2022-12-11T12:58:28;36.87;;;18.20;;
19163;SDS011;9714;51.208;4.242;2022-12-11T13:01:07;36.37;;;14.93;;
19163;SDS011;9714;51.208;4.242;2022-12-11T13:03:48;40.07;;;16.57;;
19163;SDS011;9714;51.208;4.242;2022-12-11T13:06:34;32.00;;;14.50;;
19163;SDS011;9714;51.208;4.242;2022-12-11T13:09:15;32.20;;;15.87;;
19163;SDS011;9714;51.208;4.242;2022-12-11T13:11:45;38.80;;;17.93;;
19163;SDS011;9714;51.208;4.242;2022-12-11T13:14:22;36.30;;;15.87;;
19163;SDS011;9714;51.208;4.242;2022-12-11T13:17:04;35.77;;;16.00;;
19163;SDS011;9714;51.208;4.242;2022-12-11T13:20:09;34.63;;;15.30;;
19163;SDS011;9714;51.208;4.242;2022-12-11T13:22:50;32.07;;;15.10;;
19163;SDS011;9714;51.208;4.242;2022-12-11T13:25:22;36.80;;;14.70;;
19163;SDS011;9714;51.208;4.242;2022-12-11T13:27:52;37.07;;;17.20;;
19163;SDS011;9714;51.208;4.242;2022-12-11T13:30:30;35.07;;;14.87;;
19163;SDS011;9714;51.208;4.242;2022-12-11T13:33:02;31.27;;;14.60;;
19163;SDS011;9714;51.208;4.242;2022-12-11T13:35:33;32.03;;;13.23;;
19163;SDS011;9714;51.208;4.242;2022-12-11T13:38:06;33.67;;;14.40;;
19163;SDS011;9714;51.208;4.242;2022-12-11T13:40:42;31.57;;;14.70;;
19163;SDS011;9714;51.208;4.242;2022-12-11T13:43:14;32.17;;;16.23;;
19163;SDS011;9714;51.208;4.242;2022-12-11T13:45:46;37.20;;;14.63;;
19163;SDS011;9714;51.208;4.242;2022-12-11T13:48:18;34.07;;;14.23;;
19163;SDS011;9714;51.208;4.242;2022-12-11T13:50:50;37.10;;;17.50;;
19163;SDS011;9714;51.208;4.242;2022-12-11T13:53:20;37.40;;;16.40;;
19163;SDS011;9714;51.208;4.242;2022-12-11T13:55:54;33.10;;;14.17;;
19163;SDS011;9714;51.208;4.242;2022-12-11T13:58:22;34.07;;;15.57;;
19163;SDS011;9714;51.208;4.242;2022-12-11T14:01:02;42.00;;;21.40;;
19163;SDS011;9714;51.208;4.242;2022-12-11T14:03:32;37.67;;;16.93;;
19163;SDS011;9714;51.208;4.242;2022-12-11T14:06:00;34.27;;;16.60;;
19163;SDS011;9714;51.208;4.242;2022-12-11T14:08:31;37.03;;;16.00;;
19163;SDS011;9714;51.208;4.242;2022-12-11T14:11:01;38.07;;;17.73;;
19163;SDS011;9714;51.208;4.242;2022-12-11T14:13:30;35.83;;;17.40;;
19163;SDS011;9714;51.208;4.242;2022-12-11T14:16:00;41.50;;;20.10;;
19163;SDS011;9714;51.208;4.242;2022-12-11T14:18:29;51.67;;;22.40;;
19163;SDS011;9714;51.208;4.242;2022-12-11T14:20:58;46.77;;;18.93;;
19163;SDS011;9714;51.208;4.242;2022-12-11T14:23:27;39.60;;;17.83;;
19163;SDS011;9714;51.208;4.242;2022-12-11T14:25:57;42.97;;;18.47;;
19163;SDS011;9714;51.208;4.242;2022-12-11T14:28:27;53.70;;;27.23;;
19163;SDS011;9714;51.208;4.242;2022-12-11T14:31:01;44.90;;;22.67;;
19163;SDS011;9714;51.208;4.242;2022-12-11T14:33:31;52.13;;;24.87;;
19163;SDS011;9714;51.208;4.242;2022-12-11T14:36:00;55.57;;;24.50;;
19163;SDS011;9714;51.208;4.242;2022-12-11T14:38:29;39.13;;;19.77;;
19163;SDS011;9714;51.208;4.242;2022-12-11T14:41:10;42.97;;;18.93;;
19163;SDS011;9714;51.208;4.242;2022-12-11T14:43:42;43.03;;;19.57;;
19163;SDS011;9714;51.208;4.242;2022-12-11T14:46:14;43.13;;;20.50;;
19163;SDS011;9714;51.208;4.242;2022-12-11T14:48:44;47.03;;;20.37;;
19163;SDS011;9714;51.208;4.242;2022-12-11T14:51:18;52.07;;;23.63;;
19163;SDS011;9714;51.208;4.242;2022-12-11T14:53:45;45.13;;;20.07;;
19163;SDS011;9714;51.208;4.242;2022-12-11T14:56:16;43.03;;;20.67;;
19163;SDS011;9714;51.208;4.242;2022-12-11T14:58:52;38.73;;;19.03;;
19163;SDS011;9714;51.208;4.242;2022-12-11T15:01:28;43.60;;;18.63;;
19163;SDS011;9714;51.208;4.242;2022-12-11T15:04:02;46.90;;;20.23;;
19163;SDS011;9714;51.208;4.242;2022-12-11T15:06:45;42.47;;;18.80;;
19163;SDS011;9714;51.208;4.242;2022-12-11T15:09:23;38.47;;;20.80;;
19163;SDS011;9714;51.208;4.242;2022-12-11T15:11:56;41.83;;;19.13;;